sensor_id;sensor_type;location;lat;lon;timestamp;pressure;altitude;pressure_sealevel;temperature;humidity
50672;BME280;46021;55.882;37.654;2023-08-08T00:00:09;98780.91;;;20.68;61.47
50672;BME280;46021;55.882;37.654;2023-08-08T00:02:39;98772.94;;;20.68;62.17
50672;BME280;46021;55.882;37.654;2023-08-08T00:05:07;98771.56;;;20.63;62.43
50672;BME280;46021;55.882;37.654;2023-08-08T00:07:34;98776.38;;;20.58;62.70
50672;BME280;46021;55.882;37.654;2023-08-08T00:10:03;98765.78;;;20.58;62.04
50672;BME280;46021;55.882;37.654;2023-08-08T00:12:30;98762.72;;;20.53;62.02
50672;BME280;46021;55.882;37.654;2023-08-08T00:14:57;98765.38;;;20.53;62.26
50672;BME280;46021;55.882;37.654;2023-08-08T00:17:25;98760.09;;;20.53;62.60
50672;BME280;46021;55.882;37.654;2023-08-08T00:19:52;98763.69;;;20.52;62.91
50672;BME280;46021;55.882;37.654;2023-08-08T00:22:19;98758.22;;;20.44;62.40
50672;BME280;46021;55.882;37.654;2023-08-08T00:24:46;98757.94;;;20.47;62.36
50672;BME280;46021;55.882;37.654;2023-08-08T00:27:14;98750.16;;;20.45;62.98
50672;BME280;46021;55.882;37.654;2023-08-08T00:29:41;98754.59;;;20.45;62.48
50672;BME280;46021;55.882;37.654;2023-08-08T00:32:08;98746.94;;;20.42;62.72
50672;BME280;46021;55.882;37.654;2023-08-08T00:34:36;98748.47;;;20.44;62.77
50672;BME280;46021;55.882;37.654;2023-08-08T00:37:03;98739.13;;;20.40;61.87
50672;BME280;46021;55.882;37.654;2023-08-08T00:39:30;98743.59;;;20.40;62.71
50672;BME280;46021;55.882;37.654;2023-08-08T00:41:57;98737.44;;;20.39;62.38
50672;BME280;46021;55.882;37.654;2023-08-08T00:44:26;98743.97;;;20.35;63.46
50672;BME280;46021;55.882;37.654;2023-08-08T00:46:53;98734.22;;;20.36;62.38
50672;BME280;46021;55.882;37.654;2023-08-08T00:49:20;98743.72;;;20.38;62.16
50672;BME280;46021;55.882;37.654;2023-08-08T00:51:47;98734.97;;;20.38;62.80
50672;BME280;46021;55.882;37.654;2023-08-08T00:54:15;98729.50;;;20.39;62.67
50672;BME280;46021;55.882;37.654;2023-08-08T00:56:43;98730.38;;;20.40;62.76
50672;BME280;46021;55.882;37.654;2023-08-08T00:59:12;98732.03;;;20.41;62.82
50672;BME280;46021;55.882;37.654;2023-08-08T01:01:41;98723.09;;;20.32;62.39
50672;BME280;46021;55.882;37.654;2023-08-08T01:04:09;98719.88;;;20.29;63.38
50672;BME280;46021;55.882;37.654;2023-08-08T01:06:39;98722.53;;;20.29;62.48
50672;BME280;46021;55.882;37.654;2023-08-08T01:09:13;98722.53;;;20.29;63.10
50672;BME280;46021;55.882;37.654;2023-08-08T01:11:45;98721.97;;;20.35;62.96
50672;BME280;46021;55.882;37.654;2023-08-08T01:14:15;98718.09;;;20.39;61.85
50672;BME280;46021;55.882;37.654;2023-08-08T01:16:46;98723.94;;;20.33;62.39
50672;BME280;46021;55.882;37.654;2023-08-08T01:19:25;98720.03;;;20.37;62.65
50672;BME280;46021;55.882;37.654;2023-08-08T01:21:53;98717.38;;;20.37;62.19
50672;BME280;46021;55.882;37.654;2023-08-08T01:24:23;98710.28;;;20.37;61.70
50672;BME280;46021;55.882;37.654;2023-08-08T01:26:52;98702.75;;;20.33;62.29
50672;BME280;46021;55.882;37.654;2023-08-08T01:29:20;98686.72;;;20.24;62.69
50672;BME280;46021;55.882;37.654;2023-08-08T01:31:47;98675.59;;;20.31;61.87
50672;BME280;46021;55.882;37.654;2023-08-08T01:34:14;98674.88;;;20.29;62.54
50672;BME280;46021;55.882;37.654;2023-08-08T01:36:48;98699.66;;;20.28;61.85
50672;BME280;46021;55.882;37.654;2023-08-08T01:39:17;98710.00;;;20.31;62.16
50672;BME280;46021;55.882;37.654;2023-08-08T01:41:48;98700.38;;;20.30;61.95
50672;BME280;46021;55.882;37.654;2023-08-08T01:44:17;98706.34;;;20.22;62.02
50672;BME280;46021;55.882;37.654;2023-08-08T01:46:45;98705.25;;;20.24;61.63
50672;BME280;46021;55.882;37.654;2023-08-08T01:49:13;98705.28;;;20.34;61.62
50672;BME280;46021;55.882;37.654;2023-08-08T01:51:41;98699.97;;;20.34;62.01
50672;BME280;46021;55.882;37.654;2023-08-08T01:54:08;98695.66;;;20.33;61.84
50672;BME280;46021;55.882;37.654;2023-08-08T01:56:35;98688.84;;;20.40;61.71
50672;BME280;46021;55.882;37.654;2023-08-08T01:59:04;98683.28;;;20.43;61.41
50672;BME280;46021;55.882;37.654;2023-08-08T02:01:31;98688.28;;;20.47;61.99
50672;BME280;46021;55.882;37.654;2023-08-08T02:03:58;98691.06;;;20.45;61.83
50672;BME280;46021;55.882;37.654;2023-08-08T02:06:27;98689.13;;;20.47;61.84
50672;BME280;46021;55.882;37.654;2023-08-08T02:08:54;98692.31;;;20.41;61.27
50672;BME280;46021;55.882;37.654;2023-08-08T02:11:21;98689.38;;;20.34;61.62
50672;BME280;46021;55.882;37.654;2023-08-08T02:13:49;98706.66;;;20.38;61.83
50672;BME280;46021;55.882;37.654;2023-08-08T02:16:17;98695.09;;;20.39;61.29
50672;BME280;46021;55.882;37.654;2023-08-08T02:18:45;98699.16;;;20.43;61.27
50672;BME280;46021;55.882;37.654;2023-08-08T02:21:19;98698.06;;;20.46;61.18
50672;BME280;46021;55.882;37.654;2023-08-08T02:23:48;98693.31;;;20.40;61.26
50672;BME280;46021;55.882;37.654;2023-08-08T02:26:15;98691.63;;;20.39;61.23
50672;BME280;46021;55.882;37.654;2023-08-08T02:28:42;98691.22;;;20.43;61.61
50672;BME280;46021;55.882;37.654;2023-08-08T02:31:09;98691.94;;;20.45;61.61
50672;BME280;46021;55.882;37.654;2023-08-08T02:33:37;98696.09;;;20.48;61.15
50672;BME280;46021;55.882;37.654;2023-08-08T02:36:04;98703.91;;;20.50;61.33
50672;BME280;46021;55.882;37.654;2023-08-08T02:38:32;98703.63;;;20.53;61.24
50672;BME280;46021;55.882;37.654;2023-08-08T02:40:59;98702.00;;;20.61;61.09
50672;BME280;46021;55.882;37.654;2023-08-08T02:43:26;98708.44;;;20.69;60.25
50672;BME280;46021;55.882;37.654;2023-08-08T02:45:53;98706.63;;;20.79;60.39
50672;BME280;46021;55.882;37.654;2023-08-08T02:48:20;98699.81;;;20.86;60.66
50672;BME280;46021;55.882;37.654;2023-08-08T02:50:48;98705.53;;;20.91;60.67
50672;BME280;46021;55.882;37.654;2023-08-08T02:53:17;98707.06;;;21.03;60.32
50672;BME280;46021;55.882;37.654;2023-08-08T02:55:47;98694.50;;;21.06;61.35
50672;BME280;46021;55.882;37.654;2023-08-08T02:58:15;98692.84;;;21.05;61.94
50672;BME280;46021;55.882;37.654;2023-08-08T03:00:43;98695.06;;;21.09;61.42
50672;BME280;46021;55.882;37.654;2023-08-08T03:03:13;98684.59;;;21.08;61.65
50672;BME280;46021;55.882;37.654;2023-08-08T03:05:44;98692.53;;;21.08;62.27
50672;BME280;46021;55.882;37.654;2023-08-08T03:08:13;98696.47;;;20.94;61.50
50672;BME280;46021;55.882;37.654;2023-08-08T03:10:40;98707.34;;;20.91;62.14
50672;BME280;46021;55.882;37.654;2023-08-08T03:13:08;98714.31;;;20.82;62.51
50672;BME280;46021;55.882;37.654;2023-08-08T03:15:35;98705.53;;;20.81;62.35
50672;BME280;46021;55.882;37.654;2023-08-08T03:18:04;98711.22;;;20.77;62.30
50672;BME280;46021;55.882;37.654;2023-08-08T03:20:31;98712.09;;;20.87;62.34
50672;BME280;46021;55.882;37.654;2023-08-08T03:22:59;98702.88;;;20.91;62.23
50672;BME280;46021;55.882;37.654;2023-08-08T03:25:28;98711.41;;;20.85;61.41
50672;BME280;46021;55.882;37.654;2023-08-08T03:27:56;98703.44;;;20.85;61.48
50672;BME280;46021;55.882;37.654;2023-08-08T03:30:23;98713.28;;;20.63;62.28
50672;BME280;46021;55.882;37.654;2023-08-08T03:32:50;98711.91;;;20.69;61.73
50672;BME280;46021;55.882;37.654;2023-08-08T03:35:17;98707.19;;;20.73;62.21
50672;BME280;46021;55.882;37.654;2023-08-08T03:37:45;98711.25;;;20.96;62.06
50672;BME280;46021;55.882;37.654;2023-08-08T03:40:12;98715.16;;;21.31;62.37
50672;BME280;46021;55.882;37.654;2023-08-08T03:42:42;98713.16;;;21.43;60.56
50672;BME280;46021;55.882;37.654;2023-08-08T03:45:10;98711.22;;;21.55;60.01
50672;BME280;46021;55.882;37.654;2023-08-08T03:47:37;98713.19;;;21.53;59.82
50672;BME280;46021;55.882;37.654;2023-08-08T03:50:05;98717.09;;;21.29;59.88
50672;BME280;46021;55.882;37.654;2023-08-08T03:52:32;98724.06;;;21.30;60.00
50672;BME280;46021;55.882;37.654;2023-08-08T03:55:01;98722.41;;;21.29;60.11
50672;BME280;46021;55.882;37.654;2023-08-08T03:57:29;98712.75;;;21.28;59.87
50672;BME280;46021;55.882;37.654;2023-08-08T03:59:58;98715.97;;;21.32;59.89
50672;BME280;46021;55.882;37.654;2023-08-08T04:02:25;98727.44;;;21.32;59.87
50672;BME280;46021;55.882;37.654;2023-08-08T04:04:54;98723.91;;;21.32;59.93
50672;BME280;46021;55.882;37.654;2023-08-08T04:07:21;98717.38;;;21.26;59.86
50672;BME280;46021;55.882;37.654;2023-08-08T04:09:48;98721.84;;;21.26;60.25
50672;BME280;46021;55.882;37.654;2023-08-08T04:12:15;98720.16;;;21.25;60.45
50672;BME280;46021;55.882;37.654;2023-08-08T04:14:42;98730.22;;;21.31;59.90
50672;BME280;46021;55.882;37.654;2023-08-08T04:17:10;98725.31;;;21.26;60.03
50672;BME280;46021;55.882;37.654;2023-08-08T04:19:38;98725.47;;;21.25;59.80
50672;BME280;46021;55.882;37.654;2023-08-08T04:22:05;98713.59;;;21.19;59.78
50672;BME280;46021;55.882;37.654;2023-08-08T04:24:32;98719.63;;;21.21;59.82
50672;BME280;46021;55.882;37.654;2023-08-08T04:26:59;98711.94;;;21.18;59.69
50672;BME280;46021;55.882;37.654;2023-08-08T04:29:26;98724.63;;;21.24;60.26
50672;BME280;46021;55.882;37.654;2023-08-08T04:31:53;98721.00;;;21.25;60.48
50672;BME280;46021;55.882;37.654;2023-08-08T04:34:22;98735.22;;;21.24;59.87
50672;BME280;46021;55.882;37.654;2023-08-08T04:36:49;98716.56;;;21.16;60.01
50672;BME280;46021;55.882;37.654;2023-08-08T04:39:16;98735.38;;;21.13;60.62
50672;BME280;46021;55.882;37.654;2023-08-08T04:41:43;98731.06;;;21.12;60.16
50672;BME280;46021;55.882;37.654;2023-08-08T04:44:10;98736.63;;;21.09;60.49
50672;BME280;46021;55.882;37.654;2023-08-08T04:46:37;98734.25;;;21.06;61.43
50672;BME280;46021;55.882;37.654;2023-08-08T04:49:04;98735.94;;;21.07;61.64
50672;BME280;46021;55.882;37.654;2023-08-08T04:51:33;98738.03;;;21.03;61.21
50672;BME280;46021;55.882;37.654;2023-08-08T04:54:00;98735.81;;;20.98;61.42
50672;BME280;46021;55.882;37.654;2023-08-08T04:56:27;98741.78;;;21.00;62.00
50672;BME280;46021;55.882;37.654;2023-08-08T04:58:55;98724.22;;;20.90;62.16
50672;BME280;46021;55.882;37.654;2023-08-08T05:01:22;98735.22;;;20.85;61.90
50672;BME280;46021;55.882;37.654;2023-08-08T05:03:49;98737.59;;;20.88;62.74
50672;BME280;46021;55.882;37.654;2023-08-08T05:06:16;98737.31;;;20.91;62.41
50672;BME280;46021;55.882;37.654;2023-08-08T05:08:44;98735.50;;;20.92;62.81
50672;BME280;46021;55.882;37.654;2023-08-08T05:11:12;98735.94;;;20.87;62.72
50672;BME280;46021;55.882;37.654;2023-08-08T05:13:39;98732.84;;;20.82;63.27
50672;BME280;46021;55.882;37.654;2023-08-08T05:16:06;98737.44;;;20.80;62.78
50672;BME280;46021;55.882;37.654;2023-08-08T05:18:33;98740.22;;;20.69;63.83
50672;BME280;46021;55.882;37.654;2023-08-08T05:21:00;98745.09;;;20.73;64.04
50672;BME280;46021;55.882;37.654;2023-08-08T05:23:27;98760.84;;;20.75;64.33
50672;BME280;46021;55.882;37.654;2023-08-08T05:25:55;98759.22;;;20.83;64.92
50672;BME280;46021;55.882;37.654;2023-08-08T05:28:22;98754.19;;;20.90;64.99
50672;BME280;46021;55.882;37.654;2023-08-08T05:30:49;98751.69;;;20.98;64.87
50672;BME280;46021;55.882;37.654;2023-08-08T05:33:16;98754.22;;;21.10;64.72
50672;BME280;46021;55.882;37.654;2023-08-08T05:35:43;98752.53;;;21.18;64.23
50672;BME280;46021;55.882;37.654;2023-08-08T05:38:10;98748.34;;;21.16;63.50
50672;BME280;46021;55.882;37.654;2023-08-08T05:40:38;98738.88;;;21.23;63.54
50672;BME280;46021;55.882;37.654;2023-08-08T05:43:06;98742.47;;;21.32;62.78
50672;BME280;46021;55.882;37.654;2023-08-08T05:45:33;98736.47;;;21.39;62.66
50672;BME280;46021;55.882;37.654;2023-08-08T05:48:01;98736.66;;;21.48;62.97
50672;BME280;46021;55.882;37.654;2023-08-08T05:50:28;98746.41;;;21.57;62.56
50672;BME280;46021;55.882;37.654;2023-08-08T05:52:55;98752.81;;;21.64;62.30
50672;BME280;46021;55.882;37.654;2023-08-08T05:55:22;98754.44;;;21.85;62.89
50672;BME280;46021;55.882;37.654;2023-08-08T05:57:49;98745.31;;;22.07;62.47
50672;BME280;46021;55.882;37.654;2023-08-08T06:00:17;98746.78;;;22.29;62.49
50672;BME280;46021;55.882;37.654;2023-08-08T06:02:45;98747.03;;;22.35;61.35
50672;BME280;46021;55.882;37.654;2023-08-08T06:05:12;98733.34;;;22.30;61.21
50672;BME280;46021;55.882;37.654;2023-08-08T06:07:39;98732.50;;;22.30;60.77
50672;BME280;46021;55.882;37.654;2023-08-08T06:10:06;98752.09;;;22.29;61.17
50672;BME280;46021;55.882;37.654;2023-08-08T06:12:34;98732.50;;;22.30;61.42
50672;BME280;46021;55.882;37.654;2023-08-08T06:15:01;98752.28;;;22.45;61.38
50672;BME280;46021;55.882;37.654;2023-08-08T06:17:34;98757.09;;;22.60;60.70
50672;BME280;46021;55.882;37.654;2023-08-08T06:20:01;98752.97;;;22.75;60.58
50672;BME280;46021;55.882;37.654;2023-08-08T06:22:30;98739.22;;;22.80;60.25
50672;BME280;46021;55.882;37.654;2023-08-08T06:24:57;98745.72;;;22.95;59.38
50672;BME280;46021;55.882;37.654;2023-08-08T06:27:24;98746.06;;;23.00;59.02
50672;BME280;46021;55.882;37.654;2023-08-08T06:29:51;98746.06;;;23.00;58.63
50672;BME280;46021;55.882;37.654;2023-08-08T06:32:18;98751.94;;;23.04;58.57
50672;BME280;46021;55.882;37.654;2023-08-08T06:34:46;98750.84;;;23.06;58.84
50672;BME280;46021;55.882;37.654;2023-08-08T06:37:14;98745.66;;;23.05;58.69
50672;BME280;46021;55.882;37.654;2023-08-08T06:39:41;98740.34;;;22.77;58.31
50672;BME280;46021;55.882;37.654;2023-08-08T06:42:08;98744.31;;;22.73;58.77
50672;BME280;46021;55.882;37.654;2023-08-08T06:44:47;98760.44;;;22.89;58.97
50672;BME280;46021;55.882;37.654;2023-08-08T06:47:14;98756.28;;;23.05;59.18
50672;BME280;46021;55.882;37.654;2023-08-08T06:49:41;98749.84;;;23.25;59.05
50672;BME280;46021;55.882;37.654;2023-08-08T06:52:10;98750.63;;;23.44;58.67
50672;BME280;46021;55.882;37.654;2023-08-08T06:54:37;98740.38;;;23.49;58.09
50672;BME280;46021;55.882;37.654;2023-08-08T06:57:04;98754.44;;;23.41;57.67
50672;BME280;46021;55.882;37.654;2023-08-08T06:59:31;98748.41;;;23.57;57.65
50672;BME280;46021;55.882;37.654;2023-08-08T07:01:58;98759.19;;;23.73;57.51
50672;BME280;46021;55.882;37.654;2023-08-08T07:04:25;98743.75;;;23.77;57.04
50672;BME280;46021;55.882;37.654;2023-08-08T07:06:53;98753.44;;;23.60;56.85
50672;BME280;46021;55.882;37.654;2023-08-08T07:09:21;98755.66;;;23.65;56.89
50672;BME280;46021;55.882;37.654;2023-08-08T07:11:48;98759.06;;;23.57;56.59
50672;BME280;46021;55.882;37.654;2023-08-08T07:14:15;98766.69;;;23.52;57.04
50672;BME280;46021;55.882;37.654;2023-08-08T07:16:42;98766.75;;;23.60;57.34
50672;BME280;46021;55.882;37.654;2023-08-08T07:19:09;98774.25;;;23.83;57.45
50672;BME280;46021;55.882;37.654;2023-08-08T07:21:37;98775.72;;;24.03;56.96
50672;BME280;46021;55.882;37.654;2023-08-08T07:24:04;98764.94;;;24.13;56.06
50672;BME280;46021;55.882;37.654;2023-08-08T07:26:33;98769.75;;;24.09;55.98
50672;BME280;46021;55.882;37.654;2023-08-08T07:29:00;98765.03;;;23.95;55.78
50672;BME280;46021;55.882;37.654;2023-08-08T07:31:27;98777.28;;;23.88;55.75
50672;BME280;46021;55.882;37.654;2023-08-08T07:33:54;98774.78;;;23.86;55.84
50672;BME280;46021;55.882;37.654;2023-08-08T07:36:21;98780.09;;;23.86;56.00
50672;BME280;46021;55.882;37.654;2023-08-08T07:38:48;98781.75;;;23.87;56.11
50672;BME280;46021;55.882;37.654;2023-08-08T07:41:15;98768.25;;;23.81;56.06
50672;BME280;46021;55.882;37.654;2023-08-08T07:43:45;98789.25;;;23.84;56.09
50672;BME280;46021;55.882;37.654;2023-08-08T07:46:12;98786.72;;;23.82;56.34
50672;BME280;46021;55.882;37.654;2023-08-08T07:48:39;98785.19;;;23.80;56.40
50672;BME280;46021;55.882;37.654;2023-08-08T07:51:06;98787.47;;;23.74;56.74
50672;BME280;46021;55.882;37.654;2023-08-08T07:53:33;98772.44;;;23.47;56.76
50672;BME280;46021;55.882;37.654;2023-08-08T07:56:01;98782.25;;;23.29;57.02
50672;BME280;46021;55.882;37.654;2023-08-08T07:58:28;98781.34;;;23.20;57.47
50672;BME280;46021;55.882;37.654;2023-08-08T08:00:56;98789.03;;;23.05;57.42
50672;BME280;46021;55.882;37.654;2023-08-08T08:03:26;98786.41;;;22.95;57.94
50672;BME280;46021;55.882;37.654;2023-08-08T08:05:53;98790.63;;;22.88;58.25
50672;BME280;46021;55.882;37.654;2023-08-08T08:08:20;98803.38;;;22.85;58.47
50672;BME280;46021;55.882;37.654;2023-08-08T08:10:47;98799.09;;;22.74;60.31
50672;BME280;46021;55.882;37.654;2023-08-08T08:13:16;98807.47;;;22.79;60.51
50672;BME280;46021;55.882;37.654;2023-08-08T08:15:43;98799.28;;;22.90;59.61
50672;BME280;46021;55.882;37.654;2023-08-08T08:18:11;98788.56;;;23.10;59.92
50672;BME280;46021;55.882;37.654;2023-08-08T08:20:39;98786.75;;;23.28;59.33
50672;BME280;46021;55.882;37.654;2023-08-08T08:23:06;98794.09;;;23.34;59.44
50672;BME280;46021;55.882;37.654;2023-08-08T08:25:33;98799.38;;;23.44;58.79
50672;BME280;46021;55.882;37.654;2023-08-08T08:28:00;98791.44;;;23.34;58.75
50672;BME280;46021;55.882;37.654;2023-08-08T08:30:28;98793.75;;;23.29;58.96
50672;BME280;46021;55.882;37.654;2023-08-08T08:32:55;98795.47;;;23.21;59.12
50672;BME280;46021;55.882;37.654;2023-08-08T08:35:24;98803.16;;;23.24;59.62
50672;BME280;46021;55.882;37.654;2023-08-08T08:37:51;98819.34;;;23.30;59.50
50672;BME280;46021;55.882;37.654;2023-08-08T08:40:19;98812.72;;;23.34;58.93
50672;BME280;46021;55.882;37.654;2023-08-08T08:42:46;98807.78;;;23.40;59.16
50672;BME280;46021;55.882;37.654;2023-08-08T08:45:14;98810.78;;;23.37;58.42
50672;BME280;46021;55.882;37.654;2023-08-08T08:47:43;98819.19;;;23.14;58.56
50672;BME280;46021;55.882;37.654;2023-08-08T08:50:13;98819.63;;;23.09;58.70
50672;BME280;46021;55.882;37.654;2023-08-08T08:52:43;98818.41;;;23.04;59.23
50672;BME280;46021;55.882;37.654;2023-08-08T08:55:11;98821.06;;;23.04;59.44
50672;BME280;46021;55.882;37.654;2023-08-08T08:57:38;98810.91;;;23.17;59.88
50672;BME280;46021;55.882;37.654;2023-08-08T09:00:06;98821.56;;;23.35;59.73
50672;BME280;46021;55.882;37.654;2023-08-08T09:02:34;98819.56;;;23.55;59.95
50672;BME280;46021;55.882;37.654;2023-08-08T09:05:03;98826.94;;;23.79;59.87
50672;BME280;46021;55.882;37.654;2023-08-08T09:07:32;98815.38;;;24.41;60.95
50672;BME280;46021;55.882;37.654;2023-08-08T09:10:01;98796.72;;;26.00;59.67
50672;BME280;46021;55.882;37.654;2023-08-08T09:12:30;98806.06;;;27.31;53.36
50672;BME280;46021;55.882;37.654;2023-08-08T09:14:58;98809.00;;;27.82;51.20
50672;BME280;46021;55.882;37.654;2023-08-08T09:17:26;98815.16;;;27.68;50.89
50672;BME280;46021;55.882;37.654;2023-08-08T09:19:54;98827.47;;;27.31;50.88
50672;BME280;46021;55.882;37.654;2023-08-08T09:22:21;98827.03;;;26.88;51.13
50672;BME280;46021;55.882;37.654;2023-08-08T09:24:49;98833.31;;;26.55;51.74
50672;BME280;46021;55.882;37.654;2023-08-08T09:27:17;98836.53;;;26.34;52.14
50672;BME280;46021;55.882;37.654;2023-08-08T09:29:44;98820.91;;;26.15;52.33
50672;BME280;46021;55.882;37.654;2023-08-08T09:32:12;98821.91;;;25.97;52.44
50672;BME280;46021;55.882;37.654;2023-08-08T09:34:41;98820.06;;;25.65;52.98
50672;BME280;46021;55.882;37.654;2023-08-08T09:37:08;98830.56;;;25.42;53.29
50672;BME280;46021;55.882;37.654;2023-08-08T09:39:36;98831.16;;;25.11;54.11
50672;BME280;46021;55.882;37.654;2023-08-08T09:42:04;98838.63;;;25.07;54.42
50672;BME280;46021;55.882;37.654;2023-08-08T09:44:32;98832.88;;;24.78;55.22
50672;BME280;46021;55.882;37.654;2023-08-08T09:47:01;98843.81;;;24.66;55.06
50672;BME280;46021;55.882;37.654;2023-08-08T09:49:28;98829.66;;;24.66;55.69
50672;BME280;46021;55.882;37.654;2023-08-08T09:51:58;98837.63;;;24.58;55.76
50672;BME280;46021;55.882;37.654;2023-08-08T09:54:25;98825.28;;;24.57;55.46
50672;BME280;46021;55.882;37.654;2023-08-08T09:56:54;98843.41;;;24.53;55.56
50672;BME280;46021;55.882;37.654;2023-08-08T09:59:22;98839.09;;;24.52;55.82
50672;BME280;46021;55.882;37.654;2023-08-08T10:01:50;98835.50;;;24.69;56.33
50672;BME280;46021;55.882;37.654;2023-08-08T10:04:18;98842.44;;;24.97;56.30
50672;BME280;46021;55.882;37.654;2023-08-08T10:06:45;98836.56;;;25.27;55.93
50672;BME280;46021;55.882;37.654;2023-08-08T10:09:12;98823.25;;;25.60;54.81
50672;BME280;46021;55.882;37.654;2023-08-08T10:11:39;98839.09;;;25.86;54.35
50672;BME280;46021;55.882;37.654;2023-08-08T10:14:09;98828.78;;;26.00;53.47
50672;BME280;46021;55.882;37.654;2023-08-08T10:16:37;98839.78;;;25.97;52.80
50672;BME280;46021;55.882;37.654;2023-08-08T10:19:07;98841.94;;;25.85;52.68
50672;BME280;46021;55.882;37.654;2023-08-08T10:21:35;98828.91;;;25.57;52.83
50672;BME280;46021;55.882;37.654;2023-08-08T10:24:04;98842.91;;;25.43;53.20
50672;BME280;46021;55.882;37.654;2023-08-08T10:26:31;98843.56;;;25.28;54.08
50672;BME280;46021;55.882;37.654;2023-08-08T10:28:59;98842.47;;;25.05;54.10
50672;BME280;46021;55.882;37.654;2023-08-08T10:31:32;98845.97;;;25.05;54.21
50672;BME280;46021;55.882;37.654;2023-08-08T10:34:04;98831.13;;;25.03;54.32
50672;BME280;46021;55.882;37.654;2023-08-08T10:36:48;98847.50;;;25.16;54.43
50672;BME280;46021;55.882;37.654;2023-08-08T10:39:17;98842.38;;;25.23;54.13
50672;BME280;46021;55.882;37.654;2023-08-08T10:41:46;98838.91;;;25.47;54.16
50672;BME280;46021;55.882;37.654;2023-08-08T10:44:20;98840.09;;;25.77;53.93
50672;BME280;46021;55.882;37.654;2023-08-08T10:46:48;98844.13;;;26.06;52.93
50672;BME280;46021;55.882;37.654;2023-08-08T10:49:17;98845.25;;;26.20;52.08
50672;BME280;46021;55.882;37.654;2023-08-08T10:51:47;98846.25;;;26.35;52.08
50672;BME280;46021;55.882;37.654;2023-08-08T10:54:15;98856.91;;;26.43;51.99
50672;BME280;46021;55.882;37.654;2023-08-08T10:56:48;98851.22;;;26.38;51.73
50672;BME280;46021;55.882;37.654;2023-08-08T10:59:16;98857.22;;;26.40;51.59
50672;BME280;46021;55.882;37.654;2023-08-08T11:01:48;98858.59;;;26.28;51.43
50672;BME280;46021;55.882;37.654;2023-08-08T11:04:16;98860.31;;;26.13;51.98
50672;BME280;46021;55.882;37.654;2023-08-08T11:06:46;98867.81;;;26.17;52.36
50672;BME280;46021;55.882;37.654;2023-08-08T11:09:16;98866.81;;;26.18;52.18
50672;BME280;46021;55.882;37.654;2023-08-08T11:11:44;98869.97;;;26.22;51.93
50672;BME280;46021;55.882;37.654;2023-08-08T11:14:13;98869.00;;;26.15;51.70
50672;BME280;46021;55.882;37.654;2023-08-08T11:16:40;98873.66;;;26.04;51.86
50672;BME280;46021;55.882;37.654;2023-08-08T11:19:08;98867.81;;;25.93;52.13
50672;BME280;46021;55.882;37.654;2023-08-08T11:21:36;98869.97;;;25.81;52.84
50672;BME280;46021;55.882;37.654;2023-08-08T11:24:06;98867.13;;;25.58;53.01
50672;BME280;46021;55.882;37.654;2023-08-08T11:26:34;98864.78;;;25.55;52.91
50672;BME280;46021;55.882;37.654;2023-08-08T11:29:03;98862.09;;;25.46;53.65
50672;BME280;46021;55.882;37.654;2023-08-08T11:31:33;98867.28;;;25.56;53.55
50672;BME280;46021;55.882;37.654;2023-08-08T11:34:00;98862.59;;;25.66;53.68
50672;BME280;46021;55.882;37.654;2023-08-08T11:36:28;98877.97;;;25.64;53.64
50672;BME280;46021;55.882;37.654;2023-08-08T11:38:57;98871.59;;;25.41;53.97
50672;BME280;46021;55.882;37.654;2023-08-08T11:41:26;98884.28;;;25.39;54.18
50672;BME280;46021;55.882;37.654;2023-08-08T11:43:53;98871.09;;;25.37;54.30
50672;BME280;46021;55.882;37.654;2023-08-08T11:46:23;98880.44;;;25.49;54.65
50672;BME280;46021;55.882;37.654;2023-08-08T11:48:51;98874.94;;;25.59;54.42
50672;BME280;46021;55.882;37.654;2023-08-08T11:51:18;98880.31;;;25.76;54.45
50672;BME280;46021;55.882;37.654;2023-08-08T11:53:49;98882.66;;;25.87;54.18
50672;BME280;46021;55.882;37.654;2023-08-08T11:56:17;98879.84;;;25.97;54.08
50672;BME280;46021;55.882;37.654;2023-08-08T11:58:47;98878.69;;;25.99;53.55
50672;BME280;46021;55.882;37.654;2023-08-08T12:01:16;98878.16;;;26.04;53.81
50672;BME280;46021;55.882;37.654;2023-08-08T12:03:43;98869.63;;;26.09;54.02
50672;BME280;46021;55.882;37.654;2023-08-08T12:06:12;98872.16;;;26.18;53.91
50672;BME280;46021;55.882;37.654;2023-08-08T12:08:41;98876.09;;;26.39;53.34
50672;BME280;46021;55.882;37.654;2023-08-08T12:11:09;98874.59;;;26.44;53.17
50672;BME280;46021;55.882;37.654;2023-08-08T12:13:38;98878.78;;;26.47;52.96
50672;BME280;46021;55.882;37.654;2023-08-08T12:16:08;98868.59;;;26.34;52.84
50672;BME280;46021;55.882;37.654;2023-08-08T12:18:36;98865.47;;;26.22;52.92
50672;BME280;46021;55.882;37.654;2023-08-08T12:21:04;98872.66;;;26.22;52.88
50672;BME280;46021;55.882;37.654;2023-08-08T12:23:32;98870.63;;;26.16;53.17
50672;BME280;46021;55.882;37.654;2023-08-08T12:26:02;98873.47;;;26.14;53.23
50672;BME280;46021;55.882;37.654;2023-08-08T12:28:31;98865.97;;;26.10;53.31
50672;BME280;46021;55.882;37.654;2023-08-08T12:30:58;98861.13;;;26.13;53.33
50672;BME280;46021;55.882;37.654;2023-08-08T12:33:26;98875.00;;;26.17;53.57
50672;BME280;46021;55.882;37.654;2023-08-08T12:35:53;98871.66;;;26.06;53.37
50672;BME280;46021;55.882;37.654;2023-08-08T12:38:20;98876.34;;;25.96;53.58
50672;BME280;46021;55.882;37.654;2023-08-08T12:40:48;98879.00;;;25.88;53.87
50672;BME280;46021;55.882;37.654;2023-08-08T12:43:14;98867.31;;;25.81;54.75
50672;BME280;46021;55.882;37.654;2023-08-08T12:45:43;98869.94;;;25.73;54.41
50672;BME280;46021;55.882;37.654;2023-08-08T12:48:11;98874.13;;;25.59;54.38
50672;BME280;46021;55.882;37.654;2023-08-08T12:50:39;98871.09;;;25.54;54.55
50672;BME280;46021;55.882;37.654;2023-08-08T12:53:07;98878.13;;;25.55;54.49